sensor_id;sensor_type;location;lat;lon;timestamp;P1;durP1;ratioP1;P2;durP2;ratioP2
27893;SDS011;15240;50.812;4.792;2024-01-15T00:00:15;63.27;;;28.80;;
27893;SDS011;15240;50.812;4.792;2024-01-15T00:02:41;64.77;;;28.80;;
27893;SDS011;15240;50.812;4.792;2024-01-15T00:05:07;66.77;;;28.40;;
27893;SDS011;15240;50.812;4.792;2024-01-15T00:07:35;62.13;;;27.33;;
27893;SDS011;15240;50.812;4.792;2024-01-15T00:10:01;59.90;;;26.47;;
27893;SDS011;15240;50.812;4.792;2024-01-15T00:12:27;56.80;;;27.13;;
27893;SDS011;15240;50.812;4.792;2024-01-15T00:14:53;59.10;;;27.10;;
27893;SDS011;15240;50.812;4.792;2024-01-15T00:17:20;57.77;;;26.53;;
27893;SDS011;15240;50.812;4.792;2024-01-15T00:19:46;56.70;;;27.47;;
27893;SDS011;15240;50.812;4.792;2024-01-15T00:22:12;58.87;;;25.97;;
27893;SDS011;15240;50.812;4.792;2024-01-15T00:24:38;53.47;;;26.27;;
27893;SDS011;15240;50.812;4.792;2024-01-15T00:27:04;57.17;;;25.93;;
27893;SDS011;15240;50.812;4.792;2024-01-15T00:29:30;54.57;;;24.93;;
27893;SDS011;15240;50.812;4.792;2024-01-15T00:31:56;51.37;;;24.87;;
27893;SDS011;15240;50.812;4.792;2024-01-15T00:34:23;61.83;;;27.47;;
27893;SDS011;15240;50.812;4.792;2024-01-15T00:36:49;59.83;;;26.27;;
27893;SDS011;15240;50.812;4.792;2024-01-15T00:39:15;56.47;;;26.17;;
27893;SDS011;15240;50.812;4.792;2024-01-15T00:41:41;52.57;;;24.23;;
27893;SDS011;15240;50.812;4.792;2024-01-15T00:44:07;55.70;;;26.40;;
27893;SDS011;15240;50.812;4.792;2024-01-15T00:46:41;55.03;;;25.20;;
27893;SDS011;15240;50.812;4.792;2024-01-15T00:49:07;54.30;;;24.83;;
27893;SDS011;15240;50.812;4.792;2024-01-15T00:51:33;50.43;;;24.47;;
27893;SDS011;15240;50.812;4.792;2024-01-15T00:53:59;56.20;;;25.97;;
27893;SDS011;15240;50.812;4.792;2024-01-15T00:56:25;53.63;;;25.43;;
27893;SDS011;15240;50.812;4.792;2024-01-15T00:58:51;51.67;;;23.03;;
27893;SDS011;15240;50.812;4.792;2024-01-15T01:01:17;55.67;;;25.03;;
27893;SDS011;15240;50.812;4.792;2024-01-15T01:03:43;47.97;;;23.60;;
27893;SDS011;15240;50.812;4.792;2024-01-15T01:06:10;52.97;;;25.17;;
27893;SDS011;15240;50.812;4.792;2024-01-15T01:08:36;53.07;;;23.10;;
27893;SDS011;15240;50.812;4.792;2024-01-15T01:11:02;49.47;;;22.80;;
27893;SDS011;15240;50.812;4.792;2024-01-15T01:13:28;47.37;;;23.07;;
27893;SDS011;15240;50.812;4.792;2024-01-15T01:15:54;50.93;;;23.13;;
27893;SDS011;15240;50.812;4.792;2024-01-15T01:18:20;47.70;;;22.27;;
27893;SDS011;15240;50.812;4.792;2024-01-15T01:20:46;45.57;;;20.67;;
27893;SDS011;15240;50.812;4.792;2024-01-15T01:23:12;42.60;;;21.30;;
27893;SDS011;15240;50.812;4.792;2024-01-15T01:25:38;47.80;;;21.43;;
27893;SDS011;15240;50.812;4.792;2024-01-15T01:28:04;41.27;;;19.33;;
27893;SDS011;15240;50.812;4.792;2024-01-15T01:30:31;41.43;;;20.50;;
27893;SDS011;15240;50.812;4.792;2024-01-15T01:32:57;40.50;;;19.37;;
27893;SDS011;15240;50.812;4.792;2024-01-15T01:35:23;37.50;;;19.20;;
27893;SDS011;15240;50.812;4.792;2024-01-15T01:37:49;39.43;;;18.80;;
27893;SDS011;15240;50.812;4.792;2024-01-15T01:40:15;35.23;;;17.63;;
27893;SDS011;15240;50.812;4.792;2024-01-15T01:42:41;35.83;;;17.97;;
27893;SDS011;15240;50.812;4.792;2024-01-15T01:45:08;36.37;;;17.93;;
27893;SDS011;15240;50.812;4.792;2024-01-15T01:47:34;33.37;;;17.07;;
27893;SDS011;15240;50.812;4.792;2024-01-15T01:50:01;39.30;;;18.83;;
27893;SDS011;15240;50.812;4.792;2024-01-15T01:52:27;35.60;;;17.30;;
27893;SDS011;15240;50.812;4.792;2024-01-15T01:54:53;35.37;;;16.53;;
27893;SDS011;15240;50.812;4.792;2024-01-15T01:57:19;36.40;;;16.63;;
27893;SDS011;15240;50.812;4.792;2024-01-15T01:59:46;32.77;;;16.93;;
27893;SDS011;15240;50.812;4.792;2024-01-15T02:02:12;35.23;;;17.77;;
27893;SDS011;15240;50.812;4.792;2024-01-15T02:04:39;33.30;;;16.93;;
27893;SDS011;15240;50.812;4.792;2024-01-15T02:07:05;34.27;;;16.47;;
27893;SDS011;15240;50.812;4.792;2024-01-15T02:09:32;32.73;;;16.17;;
27893;SDS011;15240;50.812;4.792;2024-01-15T02:11:58;30.27;;;15.53;;
27893;SDS011;15240;50.812;4.792;2024-01-15T02:14:24;30.00;;;15.17;;
27893;SDS011;15240;50.812;4.792;2024-01-15T02:16:50;29.93;;;15.87;;
27893;SDS011;15240;50.812;4.792;2024-01-15T02:19:16;30.53;;;15.73;;
27893;SDS011;15240;50.812;4.792;2024-01-15T02:21:42;28.40;;;15.73;;
27893;SDS011;15240;50.812;4.792;2024-01-15T02:24:09;33.10;;;16.07;;
27893;SDS011;15240;50.812;4.792;2024-01-15T02:26:35;34.20;;;16.47;;
27893;SDS011;15240;50.812;4.792;2024-01-15T02:29:03;30.47;;;15.83;;
27893;SDS011;15240;50.812;4.792;2024-01-15T02:31:30;31.37;;;16.30;;
27893;SDS011;15240;50.812;4.792;2024-01-15T02:33:56;33.07;;;16.57;;
27893;SDS011;15240;50.812;4.792;2024-01-15T02:36:22;31.80;;;16.60;;
27893;SDS011;15240;50.812;4.792;2024-01-15T02:38:48;29.93;;;15.77;;
27893;SDS011;15240;50.812;4.792;2024-01-15T02:41:14;31.63;;;16.03;;
27893;SDS011;15240;50.812;4.792;2024-01-15T02:43:40;33.77;;;16.90;;
27893;SDS011;15240;50.812;4.792;2024-01-15T02:46:06;31.40;;;15.70;;
27893;SDS011;15240;50.812;4.792;2024-01-15T02:48:33;31.20;;;15.60;;
27893;SDS011;15240;50.812;4.792;2024-01-15T02:51:00;32.03;;;15.67;;
27893;SDS011;15240;50.812;4.792;2024-01-15T02:53:27;32.40;;;16.23;;
27893;SDS011;15240;50.812;4.792;2024-01-15T02:55:53;33.83;;;16.73;;
27893;SDS011;15240;50.812;4.792;2024-01-15T02:58:19;33.80;;;15.93;;
27893;SDS011;15240;50.812;4.792;2024-01-15T03:00:45;34.27;;;15.20;;
27893;SDS011;15240;50.812;4.792;2024-01-15T03:03:11;30.33;;;15.37;;
27893;SDS011;15240;50.812;4.792;2024-01-15T03:05:38;28.97;;;13.90;;
27893;SDS011;15240;50.812;4.792;2024-01-15T03:08:04;27.13;;;13.97;;
27893;SDS011;15240;50.812;4.792;2024-01-15T03:10:30;30.23;;;15.03;;
27893;SDS011;15240;50.812;4.792;2024-01-15T03:12:57;26.77;;;15.40;;
27893;SDS011;15240;50.812;4.792;2024-01-15T03:15:23;27.20;;;14.23;;
27893;SDS011;15240;50.812;4.792;2024-01-15T03:17:49;30.50;;;15.03;;
27893;SDS011;15240;50.812;4.792;2024-01-15T03:20:15;26.73;;;14.53;;
27893;SDS011;15240;50.812;4.792;2024-01-15T03:22:41;29.27;;;14.37;;
27893;SDS011;15240;50.812;4.792;2024-01-15T03:25:08;29.53;;;15.27;;
27893;SDS011;15240;50.812;4.792;2024-01-15T03:27:35;26.83;;;13.87;;
27893;SDS011;15240;50.812;4.792;2024-01-15T03:30:01;29.13;;;14.40;;
27893;SDS011;15240;50.812;4.792;2024-01-15T03:32:27;25.93;;;13.80;;
27893;SDS011;15240;50.812;4.792;2024-01-15T03:34:53;26.03;;;15.07;;
27893;SDS011;15240;50.812;4.792;2024-01-15T03:37:19;31.90;;;16.70;;
27893;SDS011;15240;50.812;4.792;2024-01-15T03:39:45;32.13;;;16.87;;
27893;SDS011;15240;50.812;4.792;2024-01-15T03:42:11;36.93;;;16.67;;
27893;SDS011;15240;50.812;4.792;2024-01-15T03:44:38;34.67;;;16.77;;
27893;SDS011;15240;50.812;4.792;2024-01-15T03:47:04;36.23;;;17.47;;
27893;SDS011;15240;50.812;4.792;2024-01-15T03:49:30;35.43;;;17.30;;
27893;SDS011;15240;50.812;4.792;2024-01-15T03:51:56;34.73;;;16.80;;
27893;SDS011;15240;50.812;4.792;2024-01-15T03:54:22;32.47;;;17.57;;
27893;SDS011;15240;50.812;4.792;2024-01-15T03:56:48;34.73;;;17.60;;
27893;SDS011;15240;50.812;4.792;2024-01-15T03:59:14;34.70;;;17.57;;
27893;SDS011;15240;50.812;4.792;2024-01-15T04:01:40;39.30;;;18.23;;
27893;SDS011;15240;50.812;4.792;2024-01-15T04:04:06;42.70;;;20.30;;
27893;SDS011;15240;50.812;4.792;2024-01-15T04:06:33;38.87;;;18.67;;
27893;SDS011;15240;50.812;4.792;2024-01-15T04:08:59;42.97;;;20.90;;
27893;SDS011;15240;50.812;4.792;2024-01-15T04:11:25;42.53;;;21.03;;
27893;SDS011;15240;50.812;4.792;2024-01-15T04:13:51;40.23;;;21.17;;
27893;SDS011;15240;50.812;4.792;2024-01-15T04:16:17;44.43;;;22.87;;
27893;SDS011;15240;50.812;4.792;2024-01-15T04:18:44;48.83;;;22.07;;
27893;SDS011;15240;50.812;4.792;2024-01-15T04:21:10;43.63;;;22.37;;
27893;SDS011;15240;50.812;4.792;2024-01-15T04:23:36;50.23;;;24.50;;
27893;SDS011;15240;50.812;4.792;2024-01-15T04:26:03;52.47;;;24.70;;
27893;SDS011;15240;50.812;4.792;2024-01-15T04:28:29;50.37;;;24.57;;
27893;SDS011;15240;50.812;4.792;2024-01-15T04:30:55;52.33;;;23.87;;
27893;SDS011;15240;50.812;4.792;2024-01-15T04:33:21;54.37;;;25.23;;
27893;SDS011;15240;50.812;4.792;2024-01-15T04:35:47;53.83;;;24.97;;
27893;SDS011;15240;50.812;4.792;2024-01-15T04:38:13;52.30;;;25.87;;
27893;SDS011;15240;50.812;4.792;2024-01-15T04:40:39;54.90;;;25.63;;
27893;SDS011;15240;50.812;4.792;2024-01-15T04:43:05;55.97;;;26.57;;
27893;SDS011;15240;50.812;4.792;2024-01-15T04:45:32;49.93;;;24.90;;
27893;SDS011;15240;50.812;4.792;2024-01-15T04:47:58;51.47;;;24.90;;
27893;SDS011;15240;50.812;4.792;2024-01-15T04:50:24;53.10;;;26.37;;
27893;SDS011;15240;50.812;4.792;2024-01-15T04:52:50;52.27;;;25.23;;
27893;SDS011;15240;50.812;4.792;2024-01-15T04:55:16;51.90;;;25.90;;
27893;SDS011;15240;50.812;4.792;2024-01-15T04:57:42;52.23;;;25.30;;
27893;SDS011;15240;50.812;4.792;2024-01-15T05:00:09;48.93;;;24.20;;
27893;SDS011;15240;50.812;4.792;2024-01-15T05:02:35;55.50;;;25.97;;
27893;SDS011;15240;50.812;4.792;2024-01-15T05:05:02;50.10;;;25.37;;
27893;SDS011;15240;50.812;4.792;2024-01-15T05:07:28;52.30;;;25.70;;
27893;SDS011;15240;50.812;4.792;2024-01-15T05:09:54;54.47;;;26.33;;
27893;SDS011;15240;50.812;4.792;2024-01-15T05:12:20;50.93;;;25.93;;
27893;SDS011;15240;50.812;4.792;2024-01-15T05:14:46;54.50;;;26.50;;
27893;SDS011;15240;50.812;4.792;2024-01-15T05:17:12;52.57;;;26.17;;
27893;SDS011;15240;50.812;4.792;2024-01-15T05:19:38;49.50;;;23.90;;
27893;SDS011;15240;50.812;4.792;2024-01-15T05:22:04;51.03;;;24.80;;
27893;SDS011;15240;50.812;4.792;2024-01-15T05:24:30;49.77;;;23.10;;
27893;SDS011;15240;50.812;4.792;2024-01-15T05:26:57;55.10;;;25.13;;
27893;SDS011;15240;50.812;4.792;2024-01-15T05:29:23;47.47;;;24.00;;
27893;SDS011;15240;50.812;4.792;2024-01-15T05:31:49;42.57;;;21.73;;
27893;SDS011;15240;50.812;4.792;2024-01-15T05:34:15;46.83;;;22.87;;
27893;SDS011;15240;50.812;4.792;2024-01-15T05:36:41;49.60;;;23.53;;
27893;SDS011;15240;50.812;4.792;2024-01-15T05:39:07;43.93;;;21.90;;
27893;SDS011;15240;50.812;4.792;2024-01-15T05:41:33;40.70;;;21.27;;
27893;SDS011;15240;50.812;4.792;2024-01-15T05:44:00;47.70;;;22.93;;
27893;SDS011;15240;50.812;4.792;2024-01-15T05:46:26;42.13;;;21.30;;
27893;SDS011;15240;50.812;4.792;2024-01-15T05:48:52;40.27;;;20.77;;
27893;SDS011;15240;50.812;4.792;2024-01-15T05:51:18;43.90;;;21.80;;
27893;SDS011;15240;50.812;4.792;2024-01-15T05:53:44;48.07;;;21.93;;
27893;SDS011;15240;50.812;4.792;2024-01-15T05:56:10;37.57;;;19.17;;
27893;SDS011;15240;50.812;4.792;2024-01-15T05:58:36;39.67;;;18.77;;
27893;SDS011;15240;50.812;4.792;2024-01-15T06:01:02;35.73;;;17.07;;
27893;SDS011;15240;50.812;4.792;2024-01-15T06:03:29;32.03;;;16.43;;
27893;SDS011;15240;50.812;4.792;2024-01-15T06:05:55;27.50;;;14.87;;
27893;SDS011;15240;50.812;4.792;2024-01-15T06:08:21;29.47;;;13.43;;
27893;SDS011;15240;50.812;4.792;2024-01-15T06:10:47;25.60;;;12.83;;
27893;SDS011;15240;50.812;4.792;2024-01-15T06:13:13;20.03;;;12.07;;
27893;SDS011;15240;50.812;4.792;2024-01-15T06:15:39;22.83;;;11.70;;
27893;SDS011;15240;50.812;4.792;2024-01-15T06:18:05;24.97;;;13.00;;
27893;SDS011;15240;50.812;4.792;2024-01-15T06:20:32;23.47;;;11.43;;
27893;SDS011;15240;50.812;4.792;2024-01-15T06:22:58;22.47;;;11.30;;
27893;SDS011;15240;50.812;4.792;2024-01-15T06:25:25;21.27;;;11.70;;
27893;SDS011;15240;50.812;4.792;2024-01-15T06:27:51;20.27;;;10.93;;
27893;SDS011;15240;50.812;4.792;2024-01-15T06:30:17;16.57;;;9.47;;
27893;SDS011;15240;50.812;4.792;2024-01-15T06:32:43;27.77;;;16.30;;
27893;SDS011;15240;50.812;4.792;2024-01-15T06:35:09;20.60;;;10.53;;
27893;SDS011;15240;50.812;4.792;2024-01-15T06:37:36;18.90;;;10.13;;
27893;SDS011;15240;50.812;4.792;2024-01-15T06:40:02;23.80;;;11.43;;
27893;SDS011;15240;50.812;4.792;2024-01-15T06:42:30;24.10;;;12.10;;
27893;SDS011;15240;50.812;4.792;2024-01-15T06:44:56;22.13;;;11.30;;
27893;SDS011;15240;50.812;4.792;2024-01-15T06:47:23;23.03;;;11.17;;
27893;SDS011;15240;50.812;4.792;2024-01-15T06:49:49;22.03;;;11.63;;
27893;SDS011;15240;50.812;4.792;2024-01-15T06:52:16;23.47;;;11.17;;
27893;SDS011;15240;50.812;4.792;2024-01-15T06:54:42;22.13;;;10.80;;
27893;SDS011;15240;50.812;4.792;2024-01-15T06:57:08;15.13;;;8.77;;
27893;SDS011;15240;50.812;4.792;2024-01-15T06:59:35;18.17;;;8.93;;
27893;SDS011;15240;50.812;4.792;2024-01-15T07:02:01;16.00;;;7.20;;
27893;SDS011;15240;50.812;4.792;2024-01-15T07:04:27;10.33;;;6.33;;
27893;SDS011;15240;50.812;4.792;2024-01-15T07:06:53;15.27;;;7.17;;
27893;SDS011;15240;50.812;4.792;2024-01-15T07:09:20;12.10;;;5.63;;
27893;SDS011;15240;50.812;4.792;2024-01-15T07:11:46;15.73;;;6.57;;
27893;SDS011;15240;50.812;4.792;2024-01-15T07:14:12;14.33;;;7.03;;
27893;SDS011;15240;50.812;4.792;2024-01-15T07:16:39;15.20;;;7.20;;
27893;SDS011;15240;50.812;4.792;2024-01-15T07:19:05;12.80;;;6.90;;
27893;SDS011;15240;50.812;4.792;2024-01-15T07:21:31;20.97;;;7.37;;
27893;SDS011;15240;50.812;4.792;2024-01-15T07:23:57;18.47;;;7.70;;
27893;SDS011;15240;50.812;4.792;2024-01-15T07:26:24;18.27;;;7.30;;
27893;SDS011;15240;50.812;4.792;2024-01-15T07:28:50;14.07;;;7.67;;
27893;SDS011;15240;50.812;4.792;2024-01-15T07:31:16;14.80;;;7.80;;
27893;SDS011;15240;50.812;4.792;2024-01-15T07:33:42;15.13;;;8.53;;
27893;SDS011;15240;50.812;4.792;2024-01-15T07:36:09;17.37;;;8.87;;
27893;SDS011;15240;50.812;4.792;2024-01-15T07:38:35;17.50;;;9.00;;
27893;SDS011;15240;50.812;4.792;2024-01-15T07:41:01;16.90;;;9.77;;
27893;SDS011;15240;50.812;4.792;2024-01-15T07:43:27;18.03;;;8.67;;
27893;SDS011;15240;50.812;4.792;2024-01-15T07:45:53;18.90;;;9.20;;
27893;SDS011;15240;50.812;4.792;2024-01-15T07:48:19;22.53;;;9.17;;
27893;SDS011;15240;50.812;4.792;2024-01-15T07:50:45;17.97;;;10.10;;
27893;SDS011;15240;50.812;4.792;2024-01-15T07:53:11;19.87;;;10.43;;
27893;SDS011;15240;50.812;4.792;2024-01-15T07:55:37;20.33;;;10.67;;
27893;SDS011;15240;50.812;4.792;2024-01-15T07:58:04;21.13;;;10.60;;
27893;SDS011;15240;50.812;4.792;2024-01-15T08:00:30;21.43;;;11.03;;
27893;SDS011;15240;50.812;4.792;2024-01-15T08:02:56;27.40;;;12.00;;
27893;SDS011;15240;50.812;4.792;2024-01-15T08:05:22;19.10;;;10.50;;
27893;SDS011;15240;50.812;4.792;2024-01-15T08:07:49;29.00;;;12.47;;
27893;SDS011;15240;50.812;4.792;2024-01-15T08:10:15;23.27;;;12.83;;
27893;SDS011;15240;50.812;4.792;2024-01-15T08:12:41;22.07;;;12.67;;
27893;SDS011;15240;50.812;4.792;2024-01-15T08:15:07;25.17;;;13.43;;
27893;SDS011;15240;50.812;4.792;2024-01-15T08:17:34;24.07;;;13.67;;
27893;SDS011;15240;50.812;4.792;2024-01-15T08:20:00;23.03;;;12.47;;
27893;SDS011;15240;50.812;4.792;2024-01-15T08:22:26;30.17;;;14.03;;
27893;SDS011;15240;50.812;4.792;2024-01-15T08:24:53;25.43;;;14.07;;
27893;SDS011;15240;50.812;4.792;2024-01-15T08:27:20;25.37;;;15.00;;
27893;SDS011;15240;50.812;4.792;2024-01-15T08:29:46;25.00;;;14.53;;
27893;SDS011;15240;50.812;4.792;2024-01-15T08:32:12;27.27;;;14.40;;
27893;SDS011;15240;50.812;4.792;2024-01-15T08:34:40;28.47;;;14.73;;
27893;SDS011;15240;50.812;4.792;2024-01-15T08:37:07;29.77;;;15.73;;
27893;SDS011;15240;50.812;4.792;2024-01-15T08:39:33;25.63;;;13.53;;
27893;SDS011;15240;50.812;4.792;2024-01-15T08:41:59;26.57;;;14.40;;
27893;SDS011;15240;50.812;4.792;2024-01-15T08:44:25;28.47;;;14.53;;
27893;SDS011;15240;50.812;4.792;2024-01-15T08:46:52;28.53;;;13.83;;
27893;SDS011;15240;50.812;4.792;2024-01-15T08:49:18;28.53;;;13.57;;
27893;SDS011;15240;50.812;4.792;2024-01-15T08:51:44;24.80;;;12.80;;
27893;SDS011;15240;50.812;4.792;2024-01-15T08:54:10;26.13;;;11.50;;
27893;SDS011;15240;50.812;4.792;2024-01-15T08:56:36;19.47;;;11.20;;
27893;SDS011;15240;50.812;4.792;2024-01-15T08:59:02;19.50;;;10.13;;
27893;SDS011;15240;50.812;4.792;2024-01-15T09:01:28;18.47;;;8.77;;
27893;SDS011;15240;50.812;4.792;2024-01-15T09:03:55;22.57;;;9.37;;
27893;SDS011;15240;50.812;4.792;2024-01-15T09:06:21;15.37;;;8.17;;
27893;SDS011;15240;50.812;4.792;2024-01-15T09:08:47;12.50;;;7.33;;
27893;SDS011;15240;50.812;4.792;2024-01-15T09:11:13;14.73;;;7.50;;
27893;SDS011;15240;50.812;4.792;2024-01-15T09:13:39;14.13;;;6.53;;
27893;SDS011;15240;50.812;4.792;2024-01-15T09:16:06;15.47;;;6.60;;
27893;SDS011;15240;50.812;4.792;2024-01-15T09:18:32;11.30;;;6.00;;
27893;SDS011;15240;50.812;4.792;2024-01-15T09:20:58;13.43;;;5.67;;
27893;SDS011;15240;50.812;4.792;2024-01-15T09:23:25;10.23;;;5.33;;
27893;SDS011;15240;50.812;4.792;2024-01-15T09:25:51;10.63;;;5.20;;
27893;SDS011;15240;50.812;4.792;2024-01-15T09:28:17;12.70;;;4.83;;
27893;SDS011;15240;50.812;4.792;2024-01-15T09:30:43;11.40;;;4.90;;
27893;SDS011;15240;50.812;4.792;2024-01-15T09:33:10;16.17;;;4.97;;
27893;SDS011;15240;50.812;4.792;2024-01-15T09:35:42;9.60;;;4.20;;
27893;SDS011;15240;50.812;4.792;2024-01-15T09:41:16;12.30;;;3.90;;
27893;SDS011;15240;50.812;4.792;2024-01-15T09:43:42;9.77;;;3.33;;
27893;SDS011;15240;50.812;4.792;2024-01-15T09:46:09;10.57;;;3.40;;
27893;SDS011;15240;50.812;4.792;2024-01-15T10:01:01;12.60;;;3.17;;
27893;SDS011;15240;50.812;4.792;2024-01-15T10:06:32;9.30;;;3.33;;
27893;SDS011;15240;50.812;4.792;2024-01-15T10:28:58;8.10;;;2.57;;
27893;SDS011;15240;50.812;4.792;2024-01-15T10:31:25;11.87;;;3.20;;
27893;SDS011;15240;50.812;4.792;2024-01-15T10:33:52;9.50;;;3.07;;
27893;SDS011;15240;50.812;4.792;2024-01-15T10:36:18;10.50;;;3.00;;
27893;SDS011;15240;50.812;4.792;2024-01-15T10:38:47;11.93;;;3.03;;
27893;SDS011;15240;50.812;4.792;2024-01-15T10:44:36;11.30;;;2.80;;
27893;SDS011;15240;50.812;4.792;2024-01-15T10:56:14;5.30;;;2.37;;
27893;SDS011;15240;50.812;4.792;2024-01-15T10:58:40;5.73;;;2.10;;
27893;SDS011;15240;50.812;4.792;2024-01-15T11:04:21;8.70;;;2.70;;
27893;SDS011;15240;50.812;4.792;2024-01-15T11:10:05;7.90;;;2.50;;
27893;SDS011;15240;50.812;4.792;2024-01-15T11:12:31;7.53;;;3.37;;
27893;SDS011;15240;50.812;4.792;2024-01-15T11:15:01;7.97;;;2.33;;
27893;SDS011;15240;50.812;4.792;2024-01-15T11:17:31;7.10;;;2.07;;
27893;SDS011;15240;50.812;4.792;2024-01-15T11:20:33;7.87;;;2.53;;
27893;SDS011;15240;50.812;4.792;2024-01-15T11:23:01;7.93;;;2.60;;
27893;SDS011;15240;50.812;4.792;2024-01-15T11:25:34;10.67;;;2.60;;
27893;SDS011;15240;50.812;4.792;2024-01-15T11:28:01;8.73;;;2.80;;
27893;SDS011;15240;50.812;4.792;2024-01-15T11:30:27;8.60;;;2.40;;
27893;SDS011;15240;50.812;4.792;2024-01-15T11:32:53;6.30;;;2.73;;
27893;SDS011;15240;50.812;4.792;2024-01-15T11:35:19;7.93;;;2.20;;
27893;SDS011;15240;50.812;4.792;2024-01-15T11:40:21;9.10;;;2.60;;
27893;SDS011;15240;50.812;4.792;2024-01-15T11:42:48;9.20;;;2.63;;
27893;SDS011;15240;50.812;4.792;2024-01-15T11:45:18;10.17;;;2.47;;
27893;SDS011;15240;50.812;4.792;2024-01-15T11:50:29;6.67;;;2.20;;
27893;SDS011;15240;50.812;4.792;2024-01-15T11:52:59;6.93;;;1.90;;
27893;SDS011;15240;50.812;4.792;2024-01-15T11:57:55;8.67;;;2.07;;
27893;SDS011;15240;50.812;4.792;2024-01-15T12:00:23;9.63;;;2.30;;
27893;SDS011;15240;50.812;4.792;2024-01-15T12:02:49;8.90;;;2.13;;
27893;SDS011;15240;50.812;4.792;2024-01-15T12:05:16;9.53;;;2.30;;
27893;SDS011;15240;50.812;4.792;2024-01-15T12:07:44;9.53;;;2.20;;
27893;SDS011;15240;50.812;4.792;2024-01-15T12:10:11;9.47;;;2.20;;
27893;SDS011;15240;50.812;4.792;2024-01-15T12:15:06;6.80;;;2.17;;
27893;SDS011;15240;50.812;4.792;2024-01-15T12:17:32;7.40;;;2.47;;
27893;SDS011;15240;50.812;4.792;2024-01-15T12:19:58;7.90;;;1.93;;
27893;SDS011;15240;50.812;4.792;2024-01-15T12:22:24;7.20;;;2.10;;
27893;SDS011;15240;50.812;4.792;2024-01-15T12:24:53;4.27;;;1.80;;
27893;SDS011;15240;50.812;4.792;2024-01-15T12:27:19;6.87;;;1.80;;
27893;SDS011;15240;50.812;4.792;2024-01-15T12:29:45;9.90;;;2.23;;
27893;SDS011;15240;50.812;4.792;2024-01-15T12:32:13;7.77;;;2.20;;
27893;SDS011;15240;50.812;4.792;2024-01-15T12:34:39;5.33;;;2.20;;
27893;SDS011;15240;50.812;4.792;2024-01-15T12:37:06;7.17;;;2.20;;
27893;SDS011;15240;50.812;4.792;2024-01-15T12:39:36;6.23;;;2.00;;
27893;SDS011;15240;50.812;4.792;2024-01-15T12:42:02;6.17;;;1.97;;
27893;SDS011;15240;50.812;4.792;2024-01-15T12:44:28;5.13;;;1.90;;
27893;SDS011;15240;50.812;4.792;2024-01-15T12:46:54;6.53;;;1.77;;
27893;SDS011;15240;50.812;4.792;2024-01-15T12:49:21;8.07;;;2.03;;
27893;SDS011;15240;50.812;4.792;2024-01-15T12:51:53;7.03;;;2.20;;
27893;SDS011;15240;50.812;4.792;2024-01-15T12:54:20;6.10;;;2.20;;
27893;SDS011;15240;50.812;4.792;2024-01-15T12:56:46;6.10;;;2.27;;
27893;SDS011;15240;50.812;4.792;2024-01-15T12:59:12;7.87;;;2.00;;
27893;SDS011;15240;50.812;4.792;2024-01-15T13:01:38;6.63;;;2.03;;
27893;SDS011;15240;50.812;4.792;2024-01-15T13:04:07;8.63;;;1.90;;
27893;SDS011;15240;50.812;4.792;2024-01-15T13:06:36;7.13;;;2.37;;
27893;SDS011;15240;50.812;4.792;2024-01-15T13:09:05;9.00;;;2.03;;
27893;SDS011;15240;50.812;4.792;2024-01-15T13:11:31;6.10;;;2.17;;
27893;SDS011;15240;50.812;4.792;2024-01-15T13:13:58;8.87;;;2.60;;
27893;SDS011;15240;50.812;4.792;2024-01-15T13:16:24;6.77;;;2.43;;
27893;SDS011;15240;50.812;4.792;2024-01-15T13:18:53;6.83;;;2.50;;
27893;SDS011;15240;50.812;4.792;2024-01-15T13:21:19;5.33;;;1.93;;
27893;SDS011;15240;50.812;4.792;2024-01-15T13:23:46;8.90;;;2.50;;
27893;SDS011;15240;50.812;4.792;2024-01-15T13:26:12;6.80;;;2.20;;
27893;SDS011;15240;50.812;4.792;2024-01-15T13:28:38;10.87;;;2.50;;
27893;SDS011;15240;50.812;4.792;2024-01-15T13:31:04;5.40;;;2.40;;
27893;SDS011;15240;50.812;4.792;2024-01-15T13:33:30;3.77;;;1.40;;
27893;SDS011;15240;50.812;4.792;2024-01-15T13:35:57;3.47;;;1.00;;
27893;SDS011;15240;50.812;4.792;2024-01-15T13:38:23;2.13;;;1.10;;
27893;SDS011;15240;50.812;4.792;2024-01-15T13:40:49;3.57;;;1.10;;
27893;SDS011;15240;50.812;4.792;2024-01-15T13:43:15;3.73;;;1.20;;
27893;SDS011;15240;50.812;4.792;2024-01-15T13:45:44;4.23;;;1.40;;
27893;SDS011;15240;50.812;4.792;2024-01-15T13:48:11;3.20;;;1.40;;
27893;SDS011;15240;50.812;4.792;2024-01-15T13:50:37;3.37;;;1.20;;
27893;SDS011;15240;50.812;4.792;2024-01-15T13:53:03;3.53;;;1.37;;
27893;SDS011;15240;50.812;4.792;2024-01-15T13:55:30;1.73;;;1.33;;
27893;SDS011;15240;50.812;4.792;2024-01-15T13:57:56;1.70;;;1.40;;
27893;SDS011;15240;50.812;4.792;2024-01-15T14:00:22;2.60;;;1.50;;
27893;SDS011;15240;50.812;4.792;2024-01-15T14:02:48;3.10;;;1.50;;
27893;SDS011;15240;50.812;4.792;2024-01-15T14:05:14;4.13;;;1.77;;
27893;SDS011;15240;50.812;4.792;2024-01-15T14:07:41;5.07;;;1.60;;
27893;SDS011;15240;50.812;4.792;2024-01-15T14:10:08;4.10;;;1.80;;
27893;SDS011;15240;50.812;4.792;2024-01-15T14:12:34;3.27;;;1.60;;
27893;SDS011;15240;50.812;4.792;2024-01-15T14:15:01;4.03;;;1.60;;
27893;SDS011;15240;50.812;4.792;2024-01-15T14:17:27;2.50;;;1.20;;
27893;SDS011;15240;50.812;4.792;2024-01-15T14:19:53;2.97;;;1.20;;
27893;SDS011;15240;50.812;4.792;2024-01-15T14:22:19;5.17;;;1.60;;
27893;SDS011;15240;50.812;4.792;2024-01-15T14:24:46;3.87;;;1.40;;
27893;SDS011;15240;50.812;4.792;2024-01-15T14:27:12;2.60;;;1.10;;
27893;SDS011;15240;50.812;4.792;2024-01-15T14:29:38;3.27;;;1.40;;
27893;SDS011;15240;50.812;4.792;2024-01-15T14:32:04;4.33;;;1.43;;
27893;SDS011;15240;50.812;4.792;2024-01-15T14:34:30;3.47;;;1.23;;
27893;SDS011;15240;50.812;4.792;2024-01-15T14:36:56;4.60;;;1.67;;
27893;SDS011;15240;50.812;4.792;2024-01-15T14:39:22;2.10;;;1.10;;
27893;SDS011;15240;50.812;4.792;2024-01-15T14:41:48;3.80;;;1.20;;
27893;SDS011;15240;50.812;4.792;2024-01-15T14:44:14;4.47;;;1.47;;
27893;SDS011;15240;50.812;4.792;2024-01-15T14:46:41;4.33;;;1.50;;
27893;SDS011;15240;50.812;4.792;2024-01-15T14:49:07;5.67;;;1.80;;
27893;SDS011;15240;50.812;4.792;2024-01-15T14:51:33;4.90;;;1.90;;
27893;SDS011;15240;50.812;4.792;2024-01-15T14:53:59;2.50;;;1.70;;
27893;SDS011;15240;50.812;4.792;2024-01-15T14:56:25;3.77;;;1.97;;
27893;SDS011;15240;50.812;4.792;2024-01-15T14:58:51;4.10;;;1.33;;
27893;SDS011;15240;50.812;4.792;2024-01-15T15:01:17;2.70;;;1.60;;
27893;SDS011;15240;50.812;4.792;2024-01-15T15:03:43;2.60;;;1.40;;
27893;SDS011;15240;50.812;4.792;2024-01-15T15:06:10;4.80;;;1.63;;
27893;SDS011;15240;50.812;4.792;2024-01-15T15:08:37;4.00;;;2.10;;
27893;SDS011;15240;50.812;4.792;2024-01-15T15:11:04;6.13;;;2.90;;
27893;SDS011;15240;50.812;4.792;2024-01-15T15:13:30;6.80;;;3.33;;
27893;SDS011;15240;50.812;4.792;2024-01-15T15:15:56;6.43;;;3.27;;
27893;SDS011;15240;50.812;4.792;2024-01-15T15:18:22;3.73;;;3.17;;
27893;SDS011;15240;50.812;4.792;2024-01-15T15:20:48;5.33;;;3.63;;
27893;SDS011;15240;50.812;4.792;2024-01-15T15:23:14;6.47;;;3.00;;
27893;SDS011;15240;50.812;4.792;2024-01-15T15:25:41;5.03;;;2.60;;
27893;SDS011;15240;50.812;4.792;2024-01-15T15:28:10;5.87;;;2.90;;
27893;SDS011;15240;50.812;4.792;2024-01-15T15:30:36;8.80;;;3.13;;
27893;SDS011;15240;50.812;4.792;2024-01-15T15:33:03;5.67;;;2.53;;